Wetter & Webcam

Wetterdaten Diepholz (ETND)

METAR
Forecast for: AMD Text: AMD ETND 011330Z 0111/0120 25010KT 9999 NSW SCT020 BKN040 CANCEL 1330 BY ETGL Forecast period: 1100 to 2000 UTC 01 April 2020 Forecast type: FROM: standard forecast or significant change Winds: from the WSW (250 degrees) at 12 MPH (10 knots; 5.1 m/s) Visibility: 6 or more miles 10+ km) Ceiling: 4000 feet AGL Clouds: scattered clouds at 2000 feet AGL =
broken clouds at 4000 feet AGL Weather: NSW  (no significant weather)
Sunrise (SR) / Sunset (SS)
04:57 / 18:03 UTC

Wetterdaten Bremen (EDDW)

METAR
METAR text: EDDW 012350Z 26006KT CAVOK 05/01 Q1015 Conditions at: EDDW (BREMEN , DE) observed 2350 UTC 01 April 2020 Temperature: 5.0°C (41°F) Dewpoint: 1.0°C (34°F) [RH = 75%] Pressure (altimeter): 29.97 inches Hg (1015.0 mb) Winds: from the W (260 degrees) at 7 MPH (6 knots; 3.1 m/s) Visibility: 6 or more miles (10+ km) Ceiling: ceiling and visibility are OK Clouds: unknown Weather: no significant weather observed at this time Forecast for: EDDW (BREMEN , DE) Text: EDDW 012300Z 0200/0224 24006KT CAVOK Forecast period: 0000 to 0800 UTC 02 April 2020 Forecast type: FROM: standard forecast or significant change Winds: from the WSW (240 degrees) at 7 MPH (6 knots; 3.1 m/s) Visibility: 6 or more miles 10+ km) Ceiling: unknown Clouds: missing Weather: NSW  (no significant weather) Text: BECMG 0208/0211 24015G25KT Forecast period: 0800 to 2100 UTC 02 April 2020 Forecast type: BECOMING: Conditions expected to become as follows by 1100 UTC 02 April 2020 Winds: from the WSW (240 degrees) at 17 MPH (15 knots; 7.7 m/s) =
gusting to 29 MPH (25 knots; 12.9 m/s) Visibility: 6 or more miles 10+ km) Ceiling: unknown Clouds: missing Weather: NSW  (no significant weather) Text: BECMG 0221/0224 27010KT Forecast period: 2100 UTC 02 April 2020 to 0000 UTC 03 April 2020 Forecast type: BECOMING: Conditions expected to become as follows by 0000 UTC 03 April 2020 Winds: from the W (270 degrees) at 12 MPH (10 knots; 5.1 m/s) Visibility: 6 or more miles 10+ km) Ceiling: unknown Clouds: missing Weather: NSW  (no significant weather)

Copyright © 2020 Flugplatz Diepholz-Dümmerland

© 2020 Flugplatz Diepholz-Dümmerland